sensor_id;sensor_type;location;lat;lon;timestamp;pressure;altitude;pressure_sealevel;temperature;humidity
34931;BME280;21134;49.646;8.560;2023-04-09T00:01:03;101283.31;;;7.64;78.18
34931;BME280;21134;49.646;8.560;2023-04-09T00:03:29;101280.34;;;7.84;77.41
34931;BME280;21134;49.646;8.560;2023-04-09T00:05:57;101281.31;;;7.89;80.09
34931;BME280;21134;49.646;8.560;2023-04-09T00:08:24;101280.81;;;7.67;81.81
34931;BME280;21134;49.646;8.560;2023-04-09T00:10:51;101276.91;;;7.45;82.03
34931;BME280;21134;49.646;8.560;2023-04-09T00:13:18;101279.19;;;7.35;82.96
34931;BME280;21134;49.646;8.560;2023-04-09T00:15:44;101278.91;;;7.24;83.99
34931;BME280;21134;49.646;8.560;2023-04-09T00:18:11;101276.19;;;7.16;84.20
34931;BME280;21134;49.646;8.560;2023-04-09T00:20:38;101271.00;;;7.13;84.59
34931;BME280;21134;49.646;8.560;2023-04-09T00:23:05;101267.53;;;7.10;84.94
34931;BME280;21134;49.646;8.560;2023-04-09T00:25:32;101262.47;;;7.11;83.90
34931;BME280;21134;49.646;8.560;2023-04-09T00:27:58;101260.88;;;7.15;83.90
34931;BME280;21134;49.646;8.560;2023-04-09T00:30:27;101261.00;;;7.19;83.39
34931;BME280;21134;49.646;8.560;2023-04-09T00:32:54;101264.47;;;7.23;83.57
34931;BME280;21134;49.646;8.560;2023-04-09T00:35:21;101260.22;;;7.23;82.53
34931;BME280;21134;49.646;8.560;2023-04-09T00:37:47;101262.06;;;7.28;83.12
34931;BME280;21134;49.646;8.560;2023-04-09T00:40:15;101266.31;;;7.29;82.79
34931;BME280;21134;49.646;8.560;2023-04-09T00:42:41;101252.03;;;7.35;82.27
34931;BME280;21134;49.646;8.560;2023-04-09T00:45:09;101251.19;;;7.35;82.11
34931;BME280;21134;49.646;8.560;2023-04-09T00:47:35;101256.31;;;7.36;84.03
34931;BME280;21134;49.646;8.560;2023-04-09T00:50:02;101250.41;;;7.37;83.66
34931;BME280;21134;49.646;8.560;2023-04-09T00:52:29;101257.97;;;7.34;84.13
34931;BME280;21134;49.646;8.560;2023-04-09T00:54:58;101257.03;;;7.31;84.23
34931;BME280;21134;49.646;8.560;2023-04-09T00:57:27;101261.22;;;7.29;84.27
34931;BME280;21134;49.646;8.560;2023-04-09T00:59:54;101261.16;;;7.26;84.85
34931;BME280;21134;49.646;8.560;2023-04-09T01:02:20;101262.00;;;7.26;84.91
34931;BME280;21134;49.646;8.560;2023-04-09T01:04:47;101259.44;;;7.25;83.88
34931;BME280;21134;49.646;8.560;2023-04-09T01:07:19;101261.81;;;7.18;84.51
34931;BME280;21134;49.646;8.560;2023-04-09T01:09:53;101263.44;;;7.16;84.75
34931;BME280;21134;49.646;8.560;2023-04-09T01:12:28;101263.38;;;7.13;85.49
34931;BME280;21134;49.646;8.560;2023-04-09T01:15:04;101259.91;;;7.11;85.74
34931;BME280;21134;49.646;8.560;2023-04-09T01:17:34;101265.09;;;7.14;85.12
34931;BME280;21134;49.646;8.560;2023-04-09T01:20:03;101255.66;;;7.10;85.73
34931;BME280;21134;49.646;8.560;2023-04-09T01:22:47;101253.00;;;7.06;85.08
34931;BME280;21134;49.646;8.560;2023-04-09T01:25:24;101253.03;;;7.07;85.77
34931;BME280;21134;49.646;8.560;2023-04-09T01:28:08;101251.34;;;7.08;85.63
34931;BME280;21134;49.646;8.560;2023-04-09T01:30:38;101255.59;;;7.07;84.38
34931;BME280;21134;49.646;8.560;2023-04-09T01:33:05;101255.63;;;7.09;83.89
34931;BME280;21134;49.646;8.560;2023-04-09T01:35:32;101252.16;;;7.05;84.51
34931;BME280;21134;49.646;8.560;2023-04-09T01:37:59;101255.66;;;7.10;83.33
34931;BME280;21134;49.646;8.560;2023-04-09T01:40:28;101248.94;;;7.12;83.89
34931;BME280;21134;49.646;8.560;2023-04-09T01:42:55;101263.28;;;7.10;83.68
34931;BME280;21134;49.646;8.560;2023-04-09T01:45:24;101259.91;;;7.11;83.87
34931;BME280;21134;49.646;8.560;2023-04-09T01:47:51;101259.06;;;7.11;83.53
34931;BME280;21134;49.646;8.560;2023-04-09T01:50:19;101256.44;;;7.08;83.50
34931;BME280;21134;49.646;8.560;2023-04-09T01:52:46;101267.72;;;7.17;83.16
34931;BME280;21134;49.646;8.560;2023-04-09T01:55:12;101263.44;;;7.15;83.20
34931;BME280;21134;49.646;8.560;2023-04-09T01:57:39;101267.53;;;7.10;82.86
34931;BME280;21134;49.646;8.560;2023-04-09T02:00:06;101258.19;;;7.09;82.55
34931;BME280;21134;49.646;8.560;2023-04-09T02:02:39;101256.41;;;7.06;83.06
34931;BME280;21134;49.646;8.560;2023-04-09T02:05:11;101265.66;;;7.03;83.54
34931;BME280;21134;49.646;8.560;2023-04-09T02:07:42;101263.75;;;6.95;83.87
34931;BME280;21134;49.646;8.560;2023-04-09T02:10:12;101267.97;;;6.93;84.32
34931;BME280;21134;49.646;8.560;2023-04-09T02:12:44;101271.84;;;6.81;85.55
34931;BME280;21134;49.646;8.560;2023-04-09T02:15:13;101269.09;;;6.73;87.58
34931;BME280;21134;49.646;8.560;2023-04-09T02:17:42;101273.13;;;6.65;88.13
34931;BME280;21134;49.646;8.560;2023-04-09T02:20:09;101270.28;;;6.54;88.40
34931;BME280;21134;49.646;8.560;2023-04-09T02:22:36;101270.81;;;6.42;88.58
34931;BME280;21134;49.646;8.560;2023-04-09T02:25:04;101265.44;;;6.33;89.08
34931;BME280;21134;49.646;8.560;2023-04-09T02:27:31;101274.56;;;6.26;89.20
34931;BME280;21134;49.646;8.560;2023-04-09T02:29:57;101265.00;;;6.18;89.69
34931;BME280;21134;49.646;8.560;2023-04-09T02:32:24;101270.81;;;6.14;90.42
34931;BME280;21134;49.646;8.560;2023-04-09T02:34:52;101268.75;;;6.02;90.52
34931;BME280;21134;49.646;8.560;2023-04-09T02:37:18;101268.41;;;5.91;91.66
34931;BME280;21134;49.646;8.560;2023-04-09T02:39:45;101265.72;;;5.87;92.66
34931;BME280;21134;49.646;8.560;2023-04-09T02:42:11;101263.81;;;5.79;91.81
34931;BME280;21134;49.646;8.560;2023-04-09T02:44:38;101257.66;;;5.71;92.62
34931;BME280;21134;49.646;8.560;2023-04-09T02:47:04;101255.63;;;5.61;93.27
34931;BME280;21134;49.646;8.560;2023-04-09T02:49:31;101263.97;;;5.57;93.36
34931;BME280;21134;49.646;8.560;2023-04-09T02:51:58;101262.19;;;5.54;93.02
34931;BME280;21134;49.646;8.560;2023-04-09T02:54:25;101259.59;;;5.53;93.28
34931;BME280;21134;49.646;8.560;2023-04-09T02:56:51;101272.03;;;5.45;93.37
34931;BME280;21134;49.646;8.560;2023-04-09T02:59:18;101253.41;;;5.45;93.28
34931;BME280;21134;49.646;8.560;2023-04-09T03:01:44;101262.47;;;5.36;93.44
34931;BME280;21134;49.646;8.560;2023-04-09T03:04:11;101259.53;;;5.24;94.00
34931;BME280;21134;49.646;8.560;2023-04-09T03:06:37;101258.19;;;5.10;94.48
34931;BME280;21134;49.646;8.560;2023-04-09T03:09:05;101260.31;;;4.98;95.59
34931;BME280;21134;49.646;8.560;2023-04-09T03:11:32;101246.56;;;4.91;95.53
34931;BME280;21134;49.646;8.560;2023-04-09T03:13:58;101254.22;;;4.93;95.52
34931;BME280;21134;49.646;8.560;2023-04-09T03:16:24;101247.38;;;4.90;95.07
34931;BME280;21134;49.646;8.560;2023-04-09T03:18:51;101251.69;;;4.93;95.28
34931;BME280;21134;49.646;8.560;2023-04-09T03:21:17;101248.97;;;4.88;95.52
34931;BME280;21134;49.646;8.560;2023-04-09T03:23:44;101246.56;;;4.91;96.03
34931;BME280;21134;49.646;8.560;2023-04-09T03:26:12;101248.41;;;4.95;95.25
34931;BME280;21134;49.646;8.560;2023-04-09T03:28:38;101242.63;;;4.99;95.38
34931;BME280;21134;49.646;8.560;2023-04-09T03:31:05;101249.38;;;4.99;95.30
34931;BME280;21134;49.646;8.560;2023-04-09T03:33:31;101247.84;;;5.04;94.94
34931;BME280;21134;49.646;8.560;2023-04-09T03:35:58;101247.25;;;5.11;94.63
34931;BME280;21134;49.646;8.560;2023-04-09T03:38:24;101247.38;;;5.16;94.24
34931;BME280;21134;49.646;8.560;2023-04-09T03:40:51;101242.47;;;5.20;94.29
34931;BME280;21134;49.646;8.560;2023-04-09T03:43:18;101239.25;;;5.26;93.42
34931;BME280;21134;49.646;8.560;2023-04-09T03:45:45;101232.69;;;5.31;93.76
34931;BME280;21134;49.646;8.560;2023-04-09T03:48:12;101247.91;;;5.31;94.15
34931;BME280;21134;49.646;8.560;2023-04-09T03:50:39;101237.84;;;5.34;93.39
34931;BME280;21134;49.646;8.560;2023-04-09T03:53:05;101238.41;;;5.25;94.34
34931;BME280;21134;49.646;8.560;2023-04-09T03:55:32;101240.81;;;5.21;94.99
34931;BME280;21134;49.646;8.560;2023-04-09T03:57:59;101239.56;;;5.09;95.57
34931;BME280;21134;49.646;8.560;2023-04-09T04:00:26;101248.63;;;5.01;96.16
34931;BME280;21134;49.646;8.560;2023-04-09T04:02:53;101240.00;;;4.98;96.30
34931;BME280;21134;49.646;8.560;2023-04-09T04:05:22;101238.19;;;4.94;97.09
34931;BME280;21134;49.646;8.560;2023-04-09T04:07:48;101243.34;;;4.95;97.73
34931;BME280;21134;49.646;8.560;2023-04-09T04:10:15;101238.31;;;4.97;97.45
34931;BME280;21134;49.646;8.560;2023-04-09T04:12:41;101243.53;;;5.01;97.52
34931;BME280;21134;49.646;8.560;2023-04-09T04:15:08;101242.00;;;5.06;97.70
34931;BME280;21134;49.646;8.560;2023-04-09T04:17:36;101247.94;;;5.07;97.34
34931;BME280;21134;49.646;8.560;2023-04-09T04:20:03;101247.28;;;5.12;97.40
34931;BME280;21134;49.646;8.560;2023-04-09T04:22:30;101240.69;;;5.18;97.10
34931;BME280;21134;49.646;8.560;2023-04-09T04:24:56;101247.38;;;5.16;96.97
34931;BME280;21134;49.646;8.560;2023-04-09T04:27:23;101249.09;;;5.17;97.13
34931;BME280;21134;49.646;8.560;2023-04-09T04:29:50;101246.63;;;5.18;97.22
34931;BME280;21134;49.646;8.560;2023-04-09T04:32:16;101250.09;;;5.20;97.33
34931;BME280;21134;49.646;8.560;2023-04-09T04:34:47;101246.84;;;5.24;96.68
34931;BME280;21134;49.646;8.560;2023-04-09T04:37:14;101251.72;;;5.18;96.64
34931;BME280;21134;49.646;8.560;2023-04-09T04:39:40;101252.53;;;5.17;96.97
34931;BME280;21134;49.646;8.560;2023-04-09T04:42:10;101253.13;;;5.10;97.41
34931;BME280;21134;49.646;8.560;2023-04-09T04:44:36;101259.88;;;5.09;97.86
34931;BME280;21134;49.646;8.560;2023-04-09T04:47:02;101251.94;;;5.00;98.00
34931;BME280;21134;49.646;8.560;2023-04-09T04:49:29;101251.63;;;4.91;98.26
34931;BME280;21134;49.646;8.560;2023-04-09T04:51:57;101250.63;;;4.86;98.49
34931;BME280;21134;49.646;8.560;2023-04-09T04:54:23;101256.31;;;4.79;98.82
34931;BME280;21134;49.646;8.560;2023-04-09T04:56:50;101258.56;;;4.71;98.94
34931;BME280;21134;49.646;8.560;2023-04-09T04:59:17;101259.28;;;4.69;99.15
34931;BME280;21134;49.646;8.560;2023-04-09T05:01:43;101257.47;;;4.64;99.50
34931;BME280;21134;49.646;8.560;2023-04-09T05:04:10;101258.00;;;4.56;99.83
34931;BME280;21134;49.646;8.560;2023-04-09T05:06:36;101259.63;;;4.54;99.54
34931;BME280;21134;49.646;8.560;2023-04-09T05:09:04;101261.19;;;4.50;99.28
34931;BME280;21134;49.646;8.560;2023-04-09T05:11:30;101263.63;;;4.47;99.69
34931;BME280;21134;49.646;8.560;2023-04-09T05:13:57;101261.88;;;4.46;100.00
34931;BME280;21134;49.646;8.560;2023-04-09T05:16:23;101263.50;;;4.44;100.00
34931;BME280;21134;49.646;8.560;2023-04-09T05:18:50;101263.44;;;4.42;99.45
34931;BME280;21134;49.646;8.560;2023-04-09T05:21:16;101266.03;;;4.44;99.81
34931;BME280;21134;49.646;8.560;2023-04-09T05:23:43;101266.94;;;4.46;99.19
34931;BME280;21134;49.646;8.560;2023-04-09T05:26:10;101263.66;;;4.49;98.35
34931;BME280;21134;49.646;8.560;2023-04-09T05:28:37;101272.19;;;4.51;99.09
34931;BME280;21134;49.646;8.560;2023-04-09T05:31:03;101271.13;;;4.44;99.02
34931;BME280;21134;49.646;8.560;2023-04-09T05:33:31;101269.97;;;4.36;99.59
34931;BME280;21134;49.646;8.560;2023-04-09T05:36:02;101271.25;;;4.25;100.00
34931;BME280;21134;49.646;8.560;2023-04-09T05:38:29;101268.94;;;4.31;100.00
34931;BME280;21134;49.646;8.560;2023-04-09T05:40:55;101267.19;;;4.30;99.99
34931;BME280;21134;49.646;8.560;2023-04-09T05:43:23;101264.72;;;4.31;100.00
34931;BME280;21134;49.646;8.560;2023-04-09T05:45:50;101266.59;;;4.37;99.88
34931;BME280;21134;49.646;8.560;2023-04-09T05:48:16;101271.16;;;4.46;98.71
34931;BME280;21134;49.646;8.560;2023-04-09T05:50:48;101266.53;;;4.58;98.70
34931;BME280;21134;49.646;8.560;2023-04-09T05:53:14;101271.97;;;4.69;98.54
34931;BME280;21134;49.646;8.560;2023-04-09T05:55:41;101266.44;;;4.79;97.91
34931;BME280;21134;49.646;8.560;2023-04-09T05:58:07;101265.19;;;4.92;97.73
34931;BME280;21134;49.646;8.560;2023-04-09T06:00:35;101274.84;;;5.02;96.76
34931;BME280;21134;49.646;8.560;2023-04-09T06:03:02;101274.22;;;5.09;96.25
34931;BME280;21134;49.646;8.560;2023-04-09T06:05:28;101277.13;;;5.20;96.08
34931;BME280;21134;49.646;8.560;2023-04-09T06:07:55;101277.22;;;5.23;95.27
34931;BME280;21134;49.646;8.560;2023-04-09T06:10:21;101275.91;;;5.34;94.99
34931;BME280;21134;49.646;8.560;2023-04-09T06:12:48;101277.09;;;5.45;94.80
34931;BME280;21134;49.646;8.560;2023-04-09T06:15:15;101277.56;;;5.59;94.08
34931;BME280;21134;49.646;8.560;2023-04-09T06:17:44;101277.13;;;5.72;93.51
34931;BME280;21134;49.646;8.560;2023-04-09T06:20:10;101273.94;;;5.78;93.10
34931;BME280;21134;49.646;8.560;2023-04-09T06:22:37;101286.09;;;5.88;92.59
34931;BME280;21134;49.646;8.560;2023-04-09T06:25:04;101283.19;;;6.03;91.78
34931;BME280;21134;49.646;8.560;2023-04-09T06:27:31;101286.09;;;6.15;91.80
34931;BME280;21134;49.646;8.560;2023-04-09T06:29:57;101285.59;;;6.27;91.08
34931;BME280;21134;49.646;8.560;2023-04-09T06:32:24;101278.34;;;6.39;90.64
34931;BME280;21134;49.646;8.560;2023-04-09T06:34:52;101282.28;;;6.60;89.79
34931;BME280;21134;49.646;8.560;2023-04-09T06:37:18;101284.25;;;6.70;90.08
34931;BME280;21134;49.646;8.560;2023-04-09T06:39:44;101286.44;;;6.86;88.55
34931;BME280;21134;49.646;8.560;2023-04-09T06:42:11;101284.25;;;7.00;87.51
34931;BME280;21134;49.646;8.560;2023-04-09T06:44:37;101290.31;;;7.05;87.49
34931;BME280;21134;49.646;8.560;2023-04-09T06:47:04;101292.47;;;7.23;87.71
34931;BME280;21134;49.646;8.560;2023-04-09T06:49:32;101298.03;;;7.41;86.06
34931;BME280;21134;49.646;8.560;2023-04-09T06:52:00;101300.03;;;7.55;86.08
34931;BME280;21134;49.646;8.560;2023-04-09T06:54:27;101291.00;;;7.66;85.95
34931;BME280;21134;49.646;8.560;2023-04-09T06:56:53;101290.47;;;7.81;84.87
34931;BME280;21134;49.646;8.560;2023-04-09T06:59:20;101291.72;;;7.98;84.00
34931;BME280;21134;49.646;8.560;2023-04-09T07:01:46;101293.00;;;8.17;83.93
34931;BME280;21134;49.646;8.560;2023-04-09T07:04:13;101299.28;;;8.33;82.93
34931;BME280;21134;49.646;8.560;2023-04-09T07:06:39;101290.09;;;8.40;81.29
34931;BME280;21134;49.646;8.560;2023-04-09T07:09:07;101291.25;;;8.54;80.80
34931;BME280;21134;49.646;8.560;2023-04-09T07:11:33;101291.56;;;8.69;79.09
34931;BME280;21134;49.646;8.560;2023-04-09T07:14:00;101291.00;;;8.84;78.81
34931;BME280;21134;49.646;8.560;2023-04-09T07:16:26;101294.88;;;9.11;77.72
34931;BME280;21134;49.646;8.560;2023-04-09T07:18:53;101296.03;;;9.28;76.59
34931;BME280;21134;49.646;8.560;2023-04-09T07:21:19;101297.03;;;9.36;75.62
34931;BME280;21134;49.646;8.560;2023-04-09T07:23:46;101284.31;;;9.39;75.79
34931;BME280;21134;49.646;8.560;2023-04-09T07:26:13;101296.50;;;9.55;74.59
34931;BME280;21134;49.646;8.560;2023-04-09T07:28:40;101293.13;;;9.60;74.48
34931;BME280;21134;49.646;8.560;2023-04-09T07:31:06;101294.19;;;9.71;73.85
34931;BME280;21134;49.646;8.560;2023-04-09T07:33:33;101305.69;;;10.00;73.91
34931;BME280;21134;49.646;8.560;2023-04-09T07:36:00;101301.00;;;10.30;72.35
34931;BME280;21134;49.646;8.560;2023-04-09T07:38:27;101303.06;;;10.58;71.35
34931;BME280;21134;49.646;8.560;2023-04-09T07:40:54;101303.25;;;10.72;70.97
34931;BME280;21134;49.646;8.560;2023-04-09T07:43:22;101296.38;;;10.68;69.83
34931;BME280;21134;49.646;8.560;2023-04-09T07:45:48;101291.13;;;10.57;71.11
34931;BME280;21134;49.646;8.560;2023-04-09T07:48:15;101290.28;;;10.58;69.43
34931;BME280;21134;49.646;8.560;2023-04-09T07:50:42;101294.63;;;10.65;69.63
34931;BME280;21134;49.646;8.560;2023-04-09T07:53:09;101305.75;;;10.67;69.86
34931;BME280;21134;49.646;8.560;2023-04-09T07:55:36;101303.31;;;10.78;70.10
34931;BME280;21134;49.646;8.560;2023-04-09T07:58:02;101300.03;;;10.88;70.36
34931;BME280;21134;49.646;8.560;2023-04-09T08:00:30;101295.91;;;11.06;68.84
34931;BME280;21134;49.646;8.560;2023-04-09T08:02:57;101301.28;;;11.32;67.12
34931;BME280;21134;49.646;8.560;2023-04-09T08:05:23;101303.94;;;11.41;66.71
34931;BME280;21134;49.646;8.560;2023-04-09T08:07:50;101302.03;;;11.17;68.11
34931;BME280;21134;49.646;8.560;2023-04-09T08:10:17;101301.88;;;11.02;69.11
34931;BME280;21134;49.646;8.560;2023-04-09T08:12:43;101301.72;;;10.91;68.58
34931;BME280;21134;49.646;8.560;2023-04-09T08:15:10;101306.88;;;10.94;68.20
34931;BME280;21134;49.646;8.560;2023-04-09T08:17:38;101306.16;;;11.04;68.96
34931;BME280;21134;49.646;8.560;2023-04-09T08:20:05;101308.84;;;11.20;68.43
34931;BME280;21134;49.646;8.560;2023-04-09T08:22:32;101309.13;;;11.46;66.42
34931;BME280;21134;49.646;8.560;2023-04-09T08:24:59;101307.50;;;11.60;65.53
34931;BME280;21134;49.646;8.560;2023-04-09T08:27:26;101303.53;;;11.97;63.99
34931;BME280;21134;49.646;8.560;2023-04-09T08:29:52;101310.53;;;12.27;63.03
34931;BME280;21134;49.646;8.560;2023-04-09T08:32:19;101313.25;;;12.56;62.97
34931;BME280;21134;49.646;8.560;2023-04-09T08:34:47;101316.75;;;12.71;61.84
34931;BME280;21134;49.646;8.560;2023-04-09T08:37:13;101320.16;;;12.73;62.25
34931;BME280;21134;49.646;8.560;2023-04-09T08:39:40;101319.38;;;12.86;62.96
34931;BME280;21134;49.646;8.560;2023-04-09T08:42:07;101324.47;;;12.80;61.45
34931;BME280;21134;49.646;8.560;2023-04-09T08:44:36;101327.91;;;12.88;60.12
34931;BME280;21134;49.646;8.560;2023-04-09T08:47:07;101327.94;;;12.94;58.39
34931;BME280;21134;49.646;8.560;2023-04-09T08:49:35;101327.09;;;12.97;61.10
34931;BME280;21134;49.646;8.560;2023-04-09T08:52:03;101320.25;;;13.10;60.12
34931;BME280;21134;49.646;8.560;2023-04-09T08:54:30;101324.56;;;13.18;58.89
34931;BME280;21134;49.646;8.560;2023-04-09T08:56:57;101326.28;;;13.22;58.87
34931;BME280;21134;49.646;8.560;2023-04-09T08:59:23;101322.88;;;13.26;59.80
34931;BME280;21134;49.646;8.560;2023-04-09T09:02:05;101324.63;;;13.44;57.86
34931;BME280;21134;49.646;8.560;2023-04-09T09:04:42;101322.91;;;13.53;58.39
34931;BME280;21134;49.646;8.560;2023-04-09T09:07:11;101322.91;;;13.69;58.45
34931;BME280;21134;49.646;8.560;2023-04-09T09:09:49;101333.19;;;13.77;58.26
34931;BME280;21134;49.646;8.560;2023-04-09T09:12:32;101334.06;;;13.91;58.22
34931;BME280;21134;49.646;8.560;2023-04-09T09:14:59;101334.03;;;13.96;58.85
34931;BME280;21134;49.646;8.560;2023-04-09T09:17:25;101331.47;;;13.91;59.02
34931;BME280;21134;49.646;8.560;2023-04-09T09:19:52;101332.31;;;14.03;58.32
34931;BME280;21134;49.646;8.560;2023-04-09T09:22:20;101330.56;;;14.09;57.37
34931;BME280;21134;49.646;8.560;2023-04-09T09:24:47;101326.25;;;14.22;56.79
34931;BME280;21134;49.646;8.560;2023-04-09T09:27:30;101323.69;;;14.21;57.06
34931;BME280;21134;49.646;8.560;2023-04-09T09:29:56;101323.59;;;14.60;56.11
34931;BME280;21134;49.646;8.560;2023-04-09T09:32:23;101325.22;;;14.80;55.07
34931;BME280;21134;49.646;8.560;2023-04-09T09:34:57;101321.75;;;14.82;54.06
34931;BME280;21134;49.646;8.560;2023-04-09T09:37:28;101319.31;;;14.55;51.29
34931;BME280;21134;49.646;8.560;2023-04-09T09:39:55;101325.41;;;14.15;52.20
34931;BME280;21134;49.646;8.560;2023-04-09T09:42:22;101319.47;;;13.67;53.27
34931;BME280;21134;49.646;8.560;2023-04-09T09:44:49;101324.63;;;13.55;54.21
34931;BME280;21134;49.646;8.560;2023-04-09T09:47:17;101312.63;;;13.65;55.86
34931;BME280;21134;49.646;8.560;2023-04-09T09:49:46;101315.16;;;14.08;53.43
34931;BME280;21134;49.646;8.560;2023-04-09T09:52:13;101318.47;;;14.42;52.23
34931;BME280;21134;49.646;8.560;2023-04-09T09:54:46;101311.59;;;14.53;52.40
34931;BME280;21134;49.646;8.560;2023-04-09T09:57:15;101312.38;;;14.68;52.36
34931;BME280;21134;49.646;8.560;2023-04-09T09:59:53;101315.75;;;14.80;51.09
34931;BME280;21134;49.646;8.560;2023-04-09T10:02:22;101315.88;;;14.45;51.00
34931;BME280;21134;49.646;8.560;2023-04-09T10:04:51;101311.63;;;14.42;51.54
34931;BME280;21134;49.646;8.560;2023-04-09T10:07:18;101309.03;;;14.42;51.67
34931;BME280;21134;49.646;8.560;2023-04-09T10:09:48;101307.34;;;14.32;52.16
34931;BME280;21134;49.646;8.560;2023-04-09T10:12:15;101313.31;;;14.47;52.81
34931;BME280;21134;49.646;8.560;2023-04-09T10:14:42;101305.56;;;14.62;51.68
34931;BME280;21134;49.646;8.560;2023-04-09T10:17:10;101305.53;;;14.63;52.09
34931;BME280;21134;49.646;8.560;2023-04-09T10:19:40;101303.03;;;14.37;52.22
34931;BME280;21134;49.646;8.560;2023-04-09T10:22:09;101300.44;;;14.47;51.84
34931;BME280;21134;49.646;8.560;2023-04-09T10:24:37;101299.59;;;14.55;52.09
34931;BME280;21134;49.646;8.560;2023-04-09T10:27:13;101293.53;;;14.62;52.17
34931;BME280;21134;49.646;8.560;2023-04-09T10:29:44;101294.41;;;14.60;50.43
34931;BME280;21134;49.646;8.560;2023-04-09T10:32:11;101292.69;;;14.50;50.87
34931;BME280;21134;49.646;8.560;2023-04-09T10:34:39;101297.88;;;14.40;51.31
34931;BME280;21134;49.646;8.560;2023-04-09T10:37:07;101291.84;;;14.45;50.46
34931;BME280;21134;49.646;8.560;2023-04-09T10:39:38;101288.44;;;14.46;50.76
34931;BME280;21134;49.646;8.560;2023-04-09T10:42:07;101286.69;;;14.45;51.27
34931;BME280;21134;49.646;8.560;2023-04-09T10:44:39;101290.09;;;14.60;51.66
34931;BME280;21134;49.646;8.560;2023-04-09T10:47:07;101279.66;;;14.83;50.26
34931;BME280;21134;49.646;8.560;2023-04-09T10:49:37;101284.59;;;15.19;49.13
34931;BME280;21134;49.646;8.560;2023-04-09T10:52:05;101274.97;;;15.41;48.37
34931;BME280;21134;49.646;8.560;2023-04-09T10:54:39;101279.09;;;15.60;48.46
34931;BME280;21134;49.646;8.560;2023-04-09T10:57:11;101273.78;;;15.78;48.01
34931;BME280;21134;49.646;8.560;2023-04-09T10:59:41;101275.63;;;15.70;47.33
34931;BME280;21134;49.646;8.560;2023-04-09T11:05:01;101273.97;;;15.58;46.60
34931;BME280;21134;49.646;8.560;2023-04-09T11:07:34;101273.88;;;15.66;46.84
34931;BME280;21134;49.646;8.560;2023-04-09T11:10:02;101266.94;;;15.77;48.20
34931;BME280;21134;49.646;8.560;2023-04-09T11:12:28;101273.59;;;15.98;46.58
34931;BME280;21134;49.646;8.560;2023-04-09T11:14:56;101268.44;;;15.97;47.08
34931;BME280;21134;49.646;8.560;2023-04-09T11:17:23;101264.94;;;16.04;46.85
34931;BME280;21134;49.646;8.560;2023-04-09T11:19:49;101258.25;;;15.85;45.92
34931;BME280;21134;49.646;8.560;2023-04-09T11:22:16;101255.88;;;15.62;45.97
34931;BME280;21134;49.646;8.560;2023-04-09T11:24:45;101261.25;;;15.39;46.25
34931;BME280;21134;49.646;8.560;2023-04-09T11:27:12;101255.16;;;15.46;47.45
34931;BME280;21134;49.646;8.560;2023-04-09T11:29:39;101262.16;;;15.33;46.14
34931;BME280;21134;49.646;8.560;2023-04-09T11:32:07;101255.34;;;15.26;46.45
34931;BME280;21134;49.646;8.560;2023-04-09T11:34:34;101260.44;;;15.30;48.72
34931;BME280;21134;49.646;8.560;2023-04-09T11:37:00;101257.69;;;15.52;49.24
34931;BME280;21134;49.646;8.560;2023-04-09T11:39:31;101258.47;;;15.62;48.54
34931;BME280;21134;49.646;8.560;2023-04-09T11:41:57;101254.97;;;15.69;47.29
34931;BME280;21134;49.646;8.560;2023-04-09T11:44:25;101250.78;;;15.55;48.41
34931;BME280;21134;49.646;8.560;2023-04-09T11:46:51;101253.28;;;15.68;46.79
34931;BME280;21134;49.646;8.560;2023-04-09T11:49:19;101251.38;;;15.87;47.21
34931;BME280;21134;49.646;8.560;2023-04-09T11:51:47;101252.75;;;16.14;45.55
34931;BME280;21134;49.646;8.560;2023-04-09T11:54:13;101257.56;;;16.43;43.56
34931;BME280;21134;49.646;8.560;2023-04-09T11:56:40;101249.19;;;16.25;42.21
34931;BME280;21134;49.646;8.560;2023-04-09T11:59:07;101248.44;;;16.16;42.16
34931;BME280;21134;49.646;8.560;2023-04-09T12:01:34;101255.97;;;16.33;42.73
34931;BME280;21134;49.646;8.560;2023-04-09T12:04:00;101250.88;;;16.28;43.61
34931;BME280;21134;49.646;8.560;2023-04-09T12:06:28;101250.19;;;16.14;43.96
34931;BME280;21134;49.646;8.560;2023-04-09T12:08:57;101245.06;;;16.12;41.96
34931;BME280;21134;49.646;8.560;2023-04-09T12:11:27;101251.13;;;16.08;42.76
34931;BME280;21134;49.646;8.560;2023-04-09T12:13:58;101247.84;;;15.94;43.10
34931;BME280;21134;49.646;8.560;2023-04-09T12:16:24;101242.78;;;15.85;43.41
34931;BME280;21134;49.646;8.560;2023-04-09T12:18:50;101253.22;;;15.72;43.40
34931;BME280;21134;49.646;8.560;2023-04-09T12:21:23;101250.66;;;15.66;44.59
34931;BME280;21134;49.646;8.560;2023-04-09T12:23:51;101254.97;;;15.69;43.68
34931;BME280;21134;49.646;8.560;2023-04-09T12:26:18;101255.88;;;15.60;44.77
34931;BME280;21134;49.646;8.560;2023-04-09T12:28:45;101256.69;;;15.68;44.76
34931;BME280;21134;49.646;8.560;2023-04-09T12:31:11;101254.94;;;15.73;43.39
34931;BME280;21134;49.646;8.560;2023-04-09T12:33:38;101246.13;;;15.91;43.19
34931;BME280;21134;49.646;8.560;2023-04-09T12:36:05;101247.75;;;16.03;43.33
34931;BME280;21134;49.646;8.560;2023-04-09T12:38:31;101243.31;;;16.11;43.42
34931;BME280;21134;49.646;8.560;2023-04-09T12:40:59;101238.16;;;16.13;44.00
34931;BME280;21134;49.646;8.560;2023-04-09T12:43:26;101237.13;;;16.27;43.80
34931;BME280;21134;49.646;8.560;2023-04-09T12:45:52;101225.69;;;17.06;42.56
34931;BME280;21134;49.646;8.560;2023-04-09T12:48:19;101218.50;;;17.73;40.91
34931;BME280;21134;49.646;8.560;2023-04-09T12:50:45;101220.94;;;18.25;38.39
34931;BME280;21134;49.646;8.560;2023-04-09T12:53:11;101219.56;;;18.07;37.98
34931;BME280;21134;49.646;8.560;2023-04-09T12:55:38;101215.75;;;17.82;38.49
34931;BME280;21134;49.646;8.560;2023-04-09T12:58:06;101214.69;;;17.44;38.79
34931;BME280;21134;49.646;8.560;2023-04-09T13:00:32;101206.94;;;17.44;38.68